sensor_id;sensor_type;location;lat;lon;timestamp;pressure;altitude;pressure_sealevel;temperature;humidity
14393;BME280;7281;42.678;23.372;2023-03-20T00:01:18;95438.81;;;11.17;39.89
14393;BME280;7281;42.678;23.372;2023-03-20T00:03:45;95437.41;;;11.31;39.89
14393;BME280;7281;42.678;23.372;2023-03-20T00:08:43;95430.13;;;11.38;39.55
14393;BME280;7281;42.678;23.372;2023-03-20T00:13:52;95423.34;;;11.42;39.46
14393;BME280;7281;42.678;23.372;2023-03-20T00:16:19;95434.06;;;11.41;39.35
14393;BME280;7281;42.678;23.372;2023-03-20T00:18:46;95428.53;;;11.37;39.10
14393;BME280;7281;42.678;23.372;2023-03-20T00:21:16;95427.75;;;11.37;39.11
14393;BME280;7281;42.678;23.372;2023-03-20T00:23:44;95423.06;;;11.17;39.57
14393;BME280;7281;42.678;23.372;2023-03-20T00:26:16;95430.16;;;11.16;39.26
14393;BME280;7281;42.678;23.372;2023-03-20T00:28:46;95433.63;;;11.00;39.78
14393;BME280;7281;42.678;23.372;2023-03-20T00:31:17;95424.22;;;11.04;39.54
14393;BME280;7281;42.678;23.372;2023-03-20T00:33:46;95420.66;;;10.29;40.87
14393;BME280;7281;42.678;23.372;2023-03-20T00:36:13;95422.28;;;10.73;39.83
14393;BME280;7281;42.678;23.372;2023-03-20T00:38:39;95420.91;;;11.09;39.41
14393;BME280;7281;42.678;23.372;2023-03-20T00:41:42;95418.94;;;10.78;39.83
14393;BME280;7281;42.678;23.372;2023-03-20T00:44:01;95409.16;;;10.95;39.55
14393;BME280;7281;42.678;23.372;2023-03-20T00:46:29;95414.13;;;10.91;39.64
14393;BME280;7281;42.678;23.372;2023-03-20T00:48:57;95416.19;;;10.89;39.59
14393;BME280;7281;42.678;23.372;2023-03-20T00:51:24;95415.81;;;11.02;39.53
14393;BME280;7281;42.678;23.372;2023-03-20T00:53:51;95419.44;;;10.96;39.59
14393;BME280;7281;42.678;23.372;2023-03-20T00:56:31;95417.22;;;11.10;39.67
14393;BME280;7281;42.678;23.372;2023-03-20T00:58:59;95411.63;;;11.01;39.05
14393;BME280;7281;42.678;23.372;2023-03-20T01:01:27;95413.34;;;10.91;39.65
14393;BME280;7281;42.678;23.372;2023-03-20T01:03:54;95407.84;;;10.92;39.89
14393;BME280;7281;42.678;23.372;2023-03-20T01:06:21;95399.78;;;10.99;39.74
14393;BME280;7281;42.678;23.372;2023-03-20T01:08:48;95398.09;;;10.88;40.18
14393;BME280;7281;42.678;23.372;2023-03-20T01:11:15;95399.25;;;10.75;40.12
14393;BME280;7281;42.678;23.372;2023-03-20T01:13:47;95398.13;;;10.71;40.39
14393;BME280;7281;42.678;23.372;2023-03-20T01:16:18;95392.72;;;10.56;40.32
14393;BME280;7281;42.678;23.372;2023-03-20T01:18:46;95394.97;;;10.31;41.24
14393;BME280;7281;42.678;23.372;2023-03-20T01:21:13;95387.34;;;10.46;40.71
14393;BME280;7281;42.678;23.372;2023-03-20T01:23:40;95383.81;;;10.57;40.90
14393;BME280;7281;42.678;23.372;2023-03-20T01:26:42;95390.09;;;10.56;40.95
14393;BME280;7281;42.678;23.372;2023-03-20T01:29:00;95394.63;;;10.23;41.72
14393;BME280;7281;42.678;23.372;2023-03-20T01:31:28;95398.91;;;9.79;42.36
14393;BME280;7281;42.678;23.372;2023-03-20T01:33:55;95410.56;;;8.01;46.25
14393;BME280;7281;42.678;23.372;2023-03-20T01:36:22;95417.25;;;9.06;44.88
14393;BME280;7281;42.678;23.372;2023-03-20T01:38:52;95410.78;;;8.34;46.04
14393;BME280;7281;42.678;23.372;2023-03-20T01:41:19;95414.06;;;8.06;47.28
14393;BME280;7281;42.678;23.372;2023-03-20T01:43:48;95410.94;;;8.90;45.05
14393;BME280;7281;42.678;23.372;2023-03-20T01:56:20;95406.91;;;9.89;42.72
14393;BME280;7281;42.678;23.372;2023-03-20T01:58:54;95411.44;;;10.10;42.10
14393;BME280;7281;42.678;23.372;2023-03-20T02:01:22;95410.66;;;10.09;41.95
14393;BME280;7281;42.678;23.372;2023-03-20T02:03:51;95405.88;;;10.06;41.43
14393;BME280;7281;42.678;23.372;2023-03-20T02:06:38;95405.63;;;10.08;41.81
14393;BME280;7281;42.678;23.372;2023-03-20T02:09:13;95407.88;;;10.16;41.49
14393;BME280;7281;42.678;23.372;2023-03-20T02:11:42;95396.66;;;10.04;42.07
14393;BME280;7281;42.678;23.372;2023-03-20T02:14:10;95404.06;;;9.90;41.97
14393;BME280;7281;42.678;23.372;2023-03-20T02:17:04;95398.97;;;9.84;42.08
14393;BME280;7281;42.678;23.372;2023-03-20T02:22:18;95400.47;;;9.80;42.18
14393;BME280;7281;42.678;23.372;2023-03-20T02:43:21;95415.28;;;8.73;44.27
14393;BME280;7281;42.678;23.372;2023-03-20T02:56:31;95400.09;;;8.70;44.98
14393;BME280;7281;42.678;23.372;2023-03-20T03:01:31;95398.00;;;8.72;45.18
14393;BME280;7281;42.678;23.372;2023-03-20T03:04:03;95399.06;;;8.71;45.24
14393;BME280;7281;42.678;23.372;2023-03-20T03:06:31;95396.84;;;8.91;44.37
14393;BME280;7281;42.678;23.372;2023-03-20T03:09:16;95395.53;;;9.05;43.79
14393;BME280;7281;42.678;23.372;2023-03-20T03:11:46;95396.25;;;9.01;44.12
14393;BME280;7281;42.678;23.372;2023-03-20T03:14:25;95397.31;;;9.16;43.45
14393;BME280;7281;42.678;23.372;2023-03-20T03:16:54;95394.28;;;9.53;43.40
14393;BME280;7281;42.678;23.372;2023-03-20T03:19:26;95388.41;;;9.62;43.16
14393;BME280;7281;42.678;23.372;2023-03-20T03:21:54;95383.00;;;9.36;43.81
14393;BME280;7281;42.678;23.372;2023-03-20T03:24:28;95383.34;;;9.39;43.16
14393;BME280;7281;42.678;23.372;2023-03-20T03:27:31;95390.94;;;9.41;43.34
14393;BME280;7281;42.678;23.372;2023-03-20T03:29:56;95393.31;;;9.42;42.87
14393;BME280;7281;42.678;23.372;2023-03-20T03:34:56;95397.44;;;9.55;42.61
14393;BME280;7281;42.678;23.372;2023-03-20T03:39:52;95393.19;;;9.49;42.38
14393;BME280;7281;42.678;23.372;2023-03-20T03:42:23;95396.81;;;9.48;42.81
14393;BME280;7281;42.678;23.372;2023-03-20T03:44:56;95397.91;;;9.35;42.63
14393;BME280;7281;42.678;23.372;2023-03-20T03:47:32;95394.13;;;9.43;42.79
14393;BME280;7281;42.678;23.372;2023-03-20T03:50:04;95405.59;;;9.25;42.87
14393;BME280;7281;42.678;23.372;2023-03-20T03:52:33;95391.22;;;9.28;42.52
14393;BME280;7281;42.678;23.372;2023-03-20T03:55:03;95394.41;;;9.30;43.04
14393;BME280;7281;42.678;23.372;2023-03-20T03:57:36;95392.34;;;9.32;42.77
14393;BME280;7281;42.678;23.372;2023-03-20T04:00:08;95394.47;;;8.90;44.25
14393;BME280;7281;42.678;23.372;2023-03-20T04:02:43;95402.88;;;8.92;43.95
14393;BME280;7281;42.678;23.372;2023-03-20T04:05:10;95404.00;;;8.84;43.94
14393;BME280;7281;42.678;23.372;2023-03-20T04:07:41;95397.69;;;9.08;43.80
14393;BME280;7281;42.678;23.372;2023-03-20T04:10:09;95388.13;;;9.31;42.98
14393;BME280;7281;42.678;23.372;2023-03-20T04:12:42;95392.63;;;9.18;42.92
14393;BME280;7281;42.678;23.372;2023-03-20T04:15:10;95389.94;;;9.13;42.82
14393;BME280;7281;42.678;23.372;2023-03-20T04:17:37;95383.28;;;8.94;43.16
14393;BME280;7281;42.678;23.372;2023-03-20T04:20:05;95382.00;;;9.08;42.77
14393;BME280;7281;42.678;23.372;2023-03-20T04:22:32;95391.13;;;8.94;43.03
14393;BME280;7281;42.678;23.372;2023-03-20T04:25:15;95381.50;;;8.83;43.71
14393;BME280;7281;42.678;23.372;2023-03-20T04:27:42;95383.19;;;8.89;42.89
14393;BME280;7281;42.678;23.372;2023-03-20T04:30:21;95382.38;;;9.00;43.02
14393;BME280;7281;42.678;23.372;2023-03-20T04:33:06;95374.88;;;8.92;43.24
14393;BME280;7281;42.678;23.372;2023-03-20T04:35:50;95386.03;;;8.99;43.40
14393;BME280;7281;42.678;23.372;2023-03-20T04:38:18;95390.84;;;9.07;42.56
14393;BME280;7281;42.678;23.372;2023-03-20T04:40:45;95380.13;;;8.92;42.86
14393;BME280;7281;42.678;23.372;2023-03-20T04:43:13;95386.38;;;8.91;43.48
14393;BME280;7281;42.678;23.372;2023-03-20T04:45:40;95395.03;;;8.92;43.20
14393;BME280;7281;42.678;23.372;2023-03-20T04:48:07;95396.34;;;8.94;45.98
14393;BME280;7281;42.678;23.372;2023-03-20T04:50:37;95395.34;;;9.23;44.55
14393;BME280;7281;42.678;23.372;2023-03-20T04:53:04;95404.00;;;9.12;43.40
14393;BME280;7281;42.678;23.372;2023-03-20T04:55:31;95405.78;;;9.23;43.48
14393;BME280;7281;42.678;23.372;2023-03-20T04:57:58;95404.50;;;9.38;42.81
14393;BME280;7281;42.678;23.372;2023-03-20T05:00:26;95403.44;;;9.39;42.38
14393;BME280;7281;42.678;23.372;2023-03-20T05:02:53;95412.38;;;9.54;42.24
14393;BME280;7281;42.678;23.372;2023-03-20T05:05:20;95409.50;;;9.56;42.54
14393;BME280;7281;42.678;23.372;2023-03-20T05:07:48;95414.91;;;9.66;41.82
14393;BME280;7281;42.678;23.372;2023-03-20T05:10:22;95414.44;;;9.52;42.20
14393;BME280;7281;42.678;23.372;2023-03-20T05:13:00;95423.16;;;9.58;42.56
14393;BME280;7281;42.678;23.372;2023-03-20T05:15:51;95412.38;;;9.71;42.64
14393;BME280;7281;42.678;23.372;2023-03-20T05:18:38;95420.91;;;9.50;42.38
14393;BME280;7281;42.678;23.372;2023-03-20T05:21:14;95423.59;;;9.55;43.19
14393;BME280;7281;42.678;23.372;2023-03-20T05:23:41;95428.06;;;9.54;43.25
14393;BME280;7281;42.678;23.372;2023-03-20T05:26:26;95421.88;;;9.60;43.17
14393;BME280;7281;42.678;23.372;2023-03-20T05:29:13;95420.31;;;9.76;43.11
14393;BME280;7281;42.678;23.372;2023-03-20T05:31:59;95422.38;;;9.90;42.60
14393;BME280;7281;42.678;23.372;2023-03-20T05:34:35;95425.25;;;9.89;42.77
14393;BME280;7281;42.678;23.372;2023-03-20T05:37:25;95424.44;;;10.05;43.00
14393;BME280;7281;42.678;23.372;2023-03-20T05:40:03;95430.34;;;10.12;42.81
14393;BME280;7281;42.678;23.372;2023-03-20T05:42:39;95427.22;;;10.15;42.60
14393;BME280;7281;42.678;23.372;2023-03-20T05:45:24;95427.41;;;10.25;42.52
14393;BME280;7281;42.678;23.372;2023-03-20T05:48:11;95428.03;;;10.32;42.39
14393;BME280;7281;42.678;23.372;2023-03-20T05:50:57;95427.97;;;10.27;42.36
14393;BME280;7281;42.678;23.372;2023-03-20T05:53:41;95439.34;;;10.54;42.04
14393;BME280;7281;42.678;23.372;2023-03-20T05:56:28;95432.38;;;10.43;42.72
14393;BME280;7281;42.678;23.372;2023-03-20T05:59:17;95426.91;;;10.66;42.43
14393;BME280;7281;42.678;23.372;2023-03-20T06:02:07;95427.66;;;10.83;41.84
14393;BME280;7281;42.678;23.372;2023-03-20T06:04:36;95423.78;;;10.69;41.82
14393;BME280;7281;42.678;23.372;2023-03-20T06:07:04;95424.59;;;10.91;41.66
14393;BME280;7281;42.678;23.372;2023-03-20T06:09:32;95421.31;;;10.79;41.75
14393;BME280;7281;42.678;23.372;2023-03-20T06:12:04;95423.59;;;10.92;41.70
14393;BME280;7281;42.678;23.372;2023-03-20T06:14:31;95428.81;;;10.92;41.86
14393;BME280;7281;42.678;23.372;2023-03-20T06:17:01;95430.94;;;10.95;41.75
14393;BME280;7281;42.678;23.372;2023-03-20T06:19:28;95425.84;;;11.05;42.01
14393;BME280;7281;42.678;23.372;2023-03-20T06:21:55;95429.78;;;11.08;41.80
14393;BME280;7281;42.678;23.372;2023-03-20T06:24:23;95426.50;;;11.17;41.76
14393;BME280;7281;42.678;23.372;2023-03-20T06:26:50;95424.16;;;11.21;41.75
14393;BME280;7281;42.678;23.372;2023-03-20T06:29:17;95427.59;;;11.21;41.84
14393;BME280;7281;42.678;23.372;2023-03-20T06:31:50;95434.94;;;11.24;41.44
14393;BME280;7281;42.678;23.372;2023-03-20T06:34:24;95430.44;;;11.42;41.23
14393;BME280;7281;42.678;23.372;2023-03-20T06:36:52;95435.28;;;11.55;41.47
14393;BME280;7281;42.678;23.372;2023-03-20T06:39:21;95429.03;;;11.61;40.95
14393;BME280;7281;42.678;23.372;2023-03-20T06:41:48;95437.88;;;11.76;40.64
14393;BME280;7281;42.678;23.372;2023-03-20T06:44:17;95427.53;;;11.65;40.72
14393;BME280;7281;42.678;23.372;2023-03-20T06:47:07;95431.41;;;11.89;40.68
14393;BME280;7281;42.678;23.372;2023-03-20T06:49:34;95434.78;;;11.84;40.88
14393;BME280;7281;42.678;23.372;2023-03-20T06:52:00;95432.09;;;12.06;40.47
14393;BME280;7281;42.678;23.372;2023-03-20T06:54:29;95425.28;;;12.10;40.25
14393;BME280;7281;42.678;23.372;2023-03-20T06:56:56;95422.19;;;12.18;40.06
14393;BME280;7281;42.678;23.372;2023-03-20T06:59:24;95419.13;;;11.94;43.49
14393;BME280;7281;42.678;23.372;2023-03-20T07:01:56;95408.81;;;11.88;41.85
14393;BME280;7281;42.678;23.372;2023-03-20T07:04:23;95405.31;;;12.09;41.64
14393;BME280;7281;42.678;23.372;2023-03-20T07:06:54;95406.13;;;12.56;41.96
14393;BME280;7281;42.678;23.372;2023-03-20T07:09:21;95408.06;;;12.71;41.13
14393;BME280;7281;42.678;23.372;2023-03-20T07:11:48;95415.19;;;12.75;41.28
14393;BME280;7281;42.678;23.372;2023-03-20T07:14:15;95410.50;;;12.82;41.33
14393;BME280;7281;42.678;23.372;2023-03-20T07:16:50;95402.63;;;12.92;40.12
14393;BME280;7281;42.678;23.372;2023-03-20T07:19:17;95413.78;;;13.09;39.35
14393;BME280;7281;42.678;23.372;2023-03-20T07:21:50;95409.59;;;13.13;39.02
14393;BME280;7281;42.678;23.372;2023-03-20T07:24:18;95399.66;;;13.46;38.88
14393;BME280;7281;42.678;23.372;2023-03-20T07:26:45;95388.88;;;13.52;38.72
14393;BME280;7281;42.678;23.372;2023-03-20T07:29:12;95392.06;;;13.59;38.81
14393;BME280;7281;42.678;23.372;2023-03-20T07:31:40;95396.25;;;13.60;38.88
14393;BME280;7281;42.678;23.372;2023-03-20T07:34:14;95398.13;;;13.80;38.87
14393;BME280;7281;42.678;23.372;2023-03-20T07:36:41;95398.13;;;14.00;38.88
14393;BME280;7281;42.678;23.372;2023-03-20T07:39:09;95391.81;;;14.21;38.30
14393;BME280;7281;42.678;23.372;2023-03-20T07:41:38;95398.16;;;14.05;38.13
14393;BME280;7281;42.678;23.372;2023-03-20T07:44:07;95396.03;;;14.17;38.14
14393;BME280;7281;42.678;23.372;2023-03-20T07:46:51;95395.75;;;14.13;37.69
14393;BME280;7281;42.678;23.372;2023-03-20T07:49:21;95396.81;;;14.17;38.00
14393;BME280;7281;42.678;23.372;2023-03-20T07:51:48;95399.69;;;14.26;38.00
14393;BME280;7281;42.678;23.372;2023-03-20T07:54:16;95397.63;;;14.28;37.70
14393;BME280;7281;42.678;23.372;2023-03-20T07:56:42;95389.69;;;14.43;37.48
14393;BME280;7281;42.678;23.372;2023-03-20T07:59:09;95397.06;;;14.46;37.47
14393;BME280;7281;42.678;23.372;2023-03-20T08:01:37;95393.38;;;14.52;38.04
14393;BME280;7281;42.678;23.372;2023-03-20T08:04:04;95403.88;;;14.62;37.67
14393;BME280;7281;42.678;23.372;2023-03-20T08:06:31;95391.66;;;14.91;36.76
14393;BME280;7281;42.678;23.372;2023-03-20T08:08:58;95386.38;;;14.91;37.11
14393;BME280;7281;42.678;23.372;2023-03-20T08:11:24;95386.84;;;15.08;37.14
14393;BME280;7281;42.678;23.372;2023-03-20T08:13:51;95390.59;;;14.92;36.88
14393;BME280;7281;42.678;23.372;2023-03-20T08:16:18;95383.75;;;15.40;36.62
14393;BME280;7281;42.678;23.372;2023-03-20T08:18:44;95383.09;;;15.19;36.45
14393;BME280;7281;42.678;23.372;2023-03-20T08:21:11;95384.13;;;15.23;35.81
14393;BME280;7281;42.678;23.372;2023-03-20T08:23:38;95380.25;;;15.55;36.24
14393;BME280;7281;42.678;23.372;2023-03-20T08:26:05;95388.53;;;15.43;35.96
14393;BME280;7281;42.678;23.372;2023-03-20T08:28:31;95382.81;;;15.70;35.38
14393;BME280;7281;42.678;23.372;2023-03-20T08:31:13;95390.16;;;15.78;35.78
14393;BME280;7281;42.678;23.372;2023-03-20T08:33:39;95383.59;;;16.04;35.55
14393;BME280;7281;42.678;23.372;2023-03-20T08:36:06;95394.72;;;16.01;35.00
14393;BME280;7281;42.678;23.372;2023-03-20T08:38:33;95385.81;;;16.26;35.27
14393;BME280;7281;42.678;23.372;2023-03-20T08:41:00;95391.34;;;16.24;35.24
14393;BME280;7281;42.678;23.372;2023-03-20T08:43:27;95390.38;;;16.15;35.32
14393;BME280;7281;42.678;23.372;2023-03-20T08:45:54;95386.78;;;16.63;34.69
14393;BME280;7281;42.678;23.372;2023-03-20T08:48:20;95382.22;;;16.40;35.10
14393;BME280;7281;42.678;23.372;2023-03-20T08:50:47;95378.56;;;16.65;35.55
14393;BME280;7281;42.678;23.372;2023-03-20T08:53:14;95377.03;;;16.82;33.97
14393;BME280;7281;42.678;23.372;2023-03-20T08:55:40;95374.94;;;16.79;34.48
14393;BME280;7281;42.678;23.372;2023-03-20T08:58:13;95376.75;;;17.07;34.66
14393;BME280;7281;42.678;23.372;2023-03-20T09:00:41;95372.75;;;17.29;33.98
14393;BME280;7281;42.678;23.372;2023-03-20T09:03:14;95369.47;;;17.37;33.09
14393;BME280;7281;42.678;23.372;2023-03-20T09:05:44;95373.81;;;17.09;32.92
14393;BME280;7281;42.678;23.372;2023-03-20T09:08:12;95372.69;;;17.34;32.57
14393;BME280;7281;42.678;23.372;2023-03-20T09:10:39;95365.72;;;17.19;32.84
14393;BME280;7281;42.678;23.372;2023-03-20T09:13:06;95355.88;;;17.62;32.75
14393;BME280;7281;42.678;23.372;2023-03-20T09:15:51;95356.16;;;17.79;32.72
14393;BME280;7281;42.678;23.372;2023-03-20T09:18:18;95357.19;;;18.29;32.28
14393;BME280;7281;42.678;23.372;2023-03-20T09:20:47;95349.50;;;18.59;31.33
14393;BME280;7281;42.678;23.372;2023-03-20T09:23:14;95339.28;;;18.93;30.99
14393;BME280;7281;42.678;23.372;2023-03-20T09:25:40;95351.22;;;18.37;29.87
14393;BME280;7281;42.678;23.372;2023-03-20T09:28:07;95343.41;;;18.59;30.00
14393;BME280;7281;42.678;23.372;2023-03-20T09:30:35;95331.88;;;19.17;29.47
14393;BME280;7281;42.678;23.372;2023-03-20T09:33:02;95333.16;;;19.06;29.19
14393;BME280;7281;42.678;23.372;2023-03-20T09:35:29;95330.94;;;18.86;29.53
14393;BME280;7281;42.678;23.372;2023-03-20T09:37:56;95335.94;;;18.74;30.16
14393;BME280;7281;42.678;23.372;2023-03-20T09:40:26;95328.06;;;18.56;30.05
14393;BME280;7281;42.678;23.372;2023-03-20T09:48:39;95304.63;;;19.61;29.81
14393;BME280;7281;42.678;23.372;2023-03-20T09:51:12;95297.19;;;19.72;29.26
14393;BME280;7281;42.678;23.372;2023-03-20T09:53:45;95279.19;;;20.22;29.42
14393;BME280;7281;42.678;23.372;2023-03-20T09:56:14;95278.00;;;20.36;28.31
14393;BME280;7281;42.678;23.372;2023-03-20T09:58:42;95276.81;;;20.51;27.60
14393;BME280;7281;42.678;23.372;2023-03-20T10:01:12;95281.28;;;20.72;28.57
14393;BME280;7281;42.678;23.372;2023-03-20T10:03:42;95269.88;;;20.97;28.18
14393;BME280;7281;42.678;23.372;2023-03-20T10:06:13;95254.13;;;21.18;27.38
14393;BME280;7281;42.678;23.372;2023-03-20T10:08:40;95253.84;;;20.80;28.01
14393;BME280;7281;42.678;23.372;2023-03-20T10:13:58;95236.78;;;20.90;28.04
14393;BME280;7281;42.678;23.372;2023-03-20T10:16:33;95243.06;;;20.94;28.31
14393;BME280;7281;42.678;23.372;2023-03-20T10:19:27;95237.19;;;21.31;28.08
14393;BME280;7281;42.678;23.372;2023-03-20T10:22:00;95233.72;;;21.39;27.87
14393;BME280;7281;42.678;23.372;2023-03-20T10:24:29;95223.03;;;21.82;27.21
14393;BME280;7281;42.678;23.372;2023-03-20T10:27:00;95231.19;;;21.85;26.53
14393;BME280;7281;42.678;23.372;2023-03-20T10:29:44;95226.78;;;21.81;25.66
14393;BME280;7281;42.678;23.372;2023-03-20T10:37:41;95217.88;;;21.43;25.64
14393;BME280;7281;42.678;23.372;2023-03-20T10:40:24;95208.44;;;21.54;26.38
14393;BME280;7281;42.678;23.372;2023-03-20T10:42:53;95206.19;;;21.90;26.33
14393;BME280;7281;42.678;23.372;2023-03-20T10:47:48;95188.78;;;22.30;25.88
14393;BME280;7281;42.678;23.372;2023-03-20T10:50:17;95188.56;;;22.44;25.73
14393;BME280;7281;42.678;23.372;2023-03-20T10:52:44;95184.13;;;22.19;25.28
14393;BME280;7281;42.678;23.372;2023-03-20T10:55:21;95183.75;;;22.29;25.54
14393;BME280;7281;42.678;23.372;2023-03-20T10:58:13;95174.16;;;22.65;25.60
14393;BME280;7281;42.678;23.372;2023-03-20T11:00:36;95169.91;;;22.93;25.66
14393;BME280;7281;42.678;23.372;2023-03-20T11:03:04;95173.31;;;22.94;25.01
14393;BME280;7281;42.678;23.372;2023-03-20T11:05:33;95170.78;;;23.18;25.68
14393;BME280;7281;42.678;23.372;2023-03-20T11:08:07;95166.09;;;22.94;24.29
14393;BME280;7281;42.678;23.372;2023-03-20T11:10:35;95167.31;;;23.17;24.67
14393;BME280;7281;42.678;23.372;2023-03-20T11:13:12;95153.84;;;23.35;25.00
14393;BME280;7281;42.678;23.372;2023-03-20T11:15:41;95151.19;;;23.47;25.44
14393;BME280;7281;42.678;23.372;2023-03-20T11:18:09;95149.72;;;23.70;24.95
14393;BME280;7281;42.678;23.372;2023-03-20T11:23:16;95146.81;;;23.75;24.79
14393;BME280;7281;42.678;23.372;2023-03-20T11:25:57;95132.06;;;23.69;24.47
14393;BME280;7281;42.678;23.372;2023-03-20T11:28:34;95130.78;;;23.99;23.98
14393;BME280;7281;42.678;23.372;2023-03-20T11:33:59;95120.00;;;24.20;23.80
14393;BME280;7281;42.678;23.372;2023-03-20T11:38:46;95101.06;;;24.76;22.98
14393;BME280;7281;42.678;23.372;2023-03-20T11:41:17;95098.63;;;24.71;22.87
14393;BME280;7281;42.678;23.372;2023-03-20T11:43:43;95100.63;;;24.86;21.79
14393;BME280;7281;42.678;23.372;2023-03-20T11:46:11;95094.31;;;24.94;21.93
14393;BME280;7281;42.678;23.372;2023-03-20T11:48:39;95087.59;;;25.28;21.63
14393;BME280;7281;42.678;23.372;2023-03-20T11:51:12;95080.50;;;25.36;21.74
14393;BME280;7281;42.678;23.372;2023-03-20T11:53:57;95073.91;;;25.18;21.47
14393;BME280;7281;42.678;23.372;2023-03-20T12:01:17;95072.75;;;24.51;20.77
14393;BME280;7281;42.678;23.372;2023-03-20T12:06:25;95049.47;;;25.66;20.27
14393;BME280;7281;42.678;23.372;2023-03-20T12:08:55;95053.13;;;25.89;20.31
14393;BME280;7281;42.678;23.372;2023-03-20T12:14:12;95038.09;;;26.35;19.13
14393;BME280;7281;42.678;23.372;2023-03-20T12:16:41;95041.13;;;26.87;18.99
14393;BME280;7281;42.678;23.372;2023-03-20T12:19:11;95032.69;;;26.88;19.65
14393;BME280;7281;42.678;23.372;2023-03-20T12:21:45;95036.63;;;27.33;19.59
14393;BME280;7281;42.678;23.372;2023-03-20T12:27:00;95020.47;;;27.78;19.07
14393;BME280;7281;42.678;23.372;2023-03-20T12:29:37;95018.44;;;27.94;19.03
14393;BME280;7281;42.678;23.372;2023-03-20T12:35:19;95016.13;;;26.67;17.18
14393;BME280;7281;42.678;23.372;2023-03-20T12:37:48;95013.19;;;27.56;17.97
14393;BME280;7281;42.678;23.372;2023-03-20T12:40:16;95012.56;;;27.21;16.40
14393;BME280;7281;42.678;23.372;2023-03-20T12:45:27;95008.88;;;27.96;17.71
14393;BME280;7281;42.678;23.372;2023-03-20T12:48:05;94997.34;;;28.26;16.90
14393;BME280;7281;42.678;23.372;2023-03-20T12:50:38;94995.91;;;28.61;16.76
14393;BME280;7281;42.678;23.372;2023-03-20T12:58:20;94985.22;;;29.05;15.09
14393;BME280;7281;42.678;23.372;2023-03-20T13:00:54;94970.66;;;29.10;14.23
14393;BME280;7281;42.678;23.372;2023-03-20T13:13:30;94960.00;;;29.24;14.46
14393;BME280;7281;42.678;23.372;2023-03-20T13:21:15;94949.41;;;28.68;14.83
14393;BME280;7281;42.678;23.372;2023-03-20T13:23:47;94945.13;;;29.04;15.36
14393;BME280;7281;42.678;23.372;2023-03-20T13:37:00;94922.97;;;29.21;15.55
14393;BME280;7281;42.678;23.372;2023-03-20T13:42:18;94928.06;;;28.92;14.65
14393;BME280;7281;42.678;23.372;2023-03-20T13:44:47;94924.81;;;28.76;14.40
14393;BME280;7281;42.678;23.372;2023-03-20T13:47:18;94917.69;;;28.58;14.30
14393;BME280;7281;42.678;23.372;2023-03-20T13:52:21;94913.47;;;28.60;14.33
14393;BME280;7281;42.678;23.372;2023-03-20T13:59:59;94904.22;;;28.61;15.66
14393;BME280;7281;42.678;23.372;2023-03-20T14:05:35;94912.34;;;28.32;15.03
14393;BME280;7281;42.678;23.372;2023-03-20T14:11:04;94896.44;;;28.23;15.49
14393;BME280;7281;42.678;23.372;2023-03-20T14:13:32;94899.06;;;28.16;15.58
14393;BME280;7281;42.678;23.372;2023-03-20T14:16:00;94889.31;;;28.05;16.19
14393;BME280;7281;42.678;23.372;2023-03-20T14:18:29;94887.34;;;28.64;15.13
14393;BME280;7281;42.678;23.372;2023-03-20T14:20:59;94888.63;;;28.77;14.49
14393;BME280;7281;42.678;23.372;2023-03-20T14:23:34;94882.09;;;28.45;14.79
14393;BME280;7281;42.678;23.372;2023-03-20T14:26:07;94877.69;;;28.63;14.11
14393;BME280;7281;42.678;23.372;2023-03-20T14:29:19;94877.34;;;28.35;14.96
14393;BME280;7281;42.678;23.372;2023-03-20T14:36:56;94874.81;;;27.60;14.38
14393;BME280;7281;42.678;23.372;2023-03-20T14:39:34;94871.53;;;28.00;14.59
14393;BME280;7281;42.678;23.372;2023-03-20T14:47:22;94868.19;;;28.76;14.43
14393;BME280;7281;42.678;23.372;2023-03-20T14:49:54;94862.84;;;28.47;14.90
14393;BME280;7281;42.678;23.372;2023-03-20T14:52:27;94864.84;;;28.90;14.92
14393;BME280;7281;42.678;23.372;2023-03-20T14:54:56;94866.72;;;28.49;14.90
14393;BME280;7281;42.678;23.372;2023-03-20T14:57:40;94865.06;;;28.38;14.30
14393;BME280;7281;42.678;23.372;2023-03-20T15:00:25;94866.78;;;27.90;14.23
14393;BME280;7281;42.678;23.372;2023-03-20T15:02:57;94867.25;;;27.43;13.94
14393;BME280;7281;42.678;23.372;2023-03-20T15:05:29;94866.69;;;26.85;14.29
14393;BME280;7281;42.678;23.372;2023-03-20T15:07:57;94868.72;;;27.15;14.04
14393;BME280;7281;42.678;23.372;2023-03-20T15:10:27;94855.28;;;26.92;13.92
14393;BME280;7281;42.678;23.372;2023-03-20T15:12:54;94871.66;;;26.64;14.26
14393;BME280;7281;42.678;23.372;2023-03-20T15:15:24;94875.88;;;26.84;14.11
14393;BME280;7281;42.678;23.372;2023-03-20T15:17:52;94863.88;;;26.78;14.11
14393;BME280;7281;42.678;23.372;2023-03-20T15:20:20;94873.97;;;26.05;14.93
14393;BME280;7281;42.678;23.372;2023-03-20T15:22:52;94864.22;;;26.16;14.43
14393;BME280;7281;42.678;23.372;2023-03-20T15:25:24;94867.16;;;25.92;14.73
14393;BME280;7281;42.678;23.372;2023-03-20T15:27:54;94863.50;;;26.00;14.57
14393;BME280;7281;42.678;23.372;2023-03-20T15:30:21;94864.19;;;25.97;15.67
14393;BME280;7281;42.678;23.372;2023-03-20T15:32:48;94857.28;;;25.96;15.18
14393;BME280;7281;42.678;23.372;2023-03-20T15:35:19;94855.97;;;25.36;16.69
14393;BME280;7281;42.678;23.372;2023-03-20T15:37:47;94867.41;;;25.68;16.30
14393;BME280;7281;42.678;23.372;2023-03-20T15:40:22;94864.63;;;25.80;15.49
14393;BME280;7281;42.678;23.372;2023-03-20T15:43:03;94863.63;;;25.88;15.38
14393;BME280;7281;42.678;23.372;2023-03-20T15:45:32;94859.53;;;25.94;15.17
14393;BME280;7281;42.678;23.372;2023-03-20T15:48:06;94861.66;;;25.85;15.51
14393;BME280;7281;42.678;23.372;2023-03-20T15:50:34;94867.88;;;25.89;15.34
14393;BME280;7281;42.678;23.372;2023-03-20T15:53:03;94859.47;;;25.90;15.76
14393;BME280;7281;42.678;23.372;2023-03-20T15:55:30;94862.53;;;25.73;16.01
14393;BME280;7281;42.678;23.372;2023-03-20T15:57:58;94867.41;;;25.68;16.20
14393;BME280;7281;42.678;23.372;2023-03-20T16:02:52;94859.34;;;25.49;15.87